WARNING - Please set your current conddition source. Defaulted to metar

Welkom op de weersite van Veghel e.o.

De droogte lijkt nu voorbij.

Het tekort is op 12 juli rijkelijk aangevuld.
Een zeer extreem natte dag met rond 13.00 uur al 51 mm in de regenmeter.

Door storing staat nu een andere versie online waarin nog enkele fouten zitten of ontbrekende onderdelen.

Deze zullen zo spoedig mogelijk worden opgelost


Webcam Veghel  Webcam Veghel


Onweer radar Meer informatie blitzortung!


Regen radar Meer informatie rain snow radar


U vindt ons ook hier:

Het Weer Aktueel

European Weather Network

Weather Underground

Benelux Weer Netwerk

AWEKAS



Het weer levert geen direct gevaar op.    Er zijn geen waarschuwingen afgegeven.

METAR rapporten vliegvelden

   
EHAM - Amsterdam
Gewijzigd: 18-11-2017 19:55
Helder  
Helder  
   Wind: Westen 9.3 km/h
Wind: Westen 9.3 km/h
Temperatuur: 7°C
Voelt als: 5°C
Dauwpunt: 4°C
Vochtigheid: 81%
Barometer: 1016 hPa
Zicht: meer dan 10 km
Bewolking: Helder m
EHAM 181855Z 27005KT 240V310 CAVOK 07/04 Q1016 TEMPO 30013KT
EHEH - Eindhoven
Gewijzigd: 18-11-2017 19:55
Bewolking  
Bewolking  
   Wind: WZW 11.1 km/h
Wind: WZW 11.1 km/h
Temperatuur: 7°C
Voelt als: 5°C
Dauwpunt: 6°C
Vochtigheid: 93%
Barometer: 1016 hPa
Bewolking: Overcast
Zicht: meer dan 10 km
Bewolking: Grotendeels bewolkt 1127.8 m,
Bewolking 1280.2 m
EHEH 181855Z AUTO 25006KT 220V280 9999 BKN037 OVC042 07/06 Q1016 BLU 25008KT 9999 FEW020 SCT025 TEMPO 30013G23KT 3500 SHRA FEW010 SCT015CB BKN025
EHGR - Gilze/Rijen
Gewijzigd: 18-11-2017 19:55
Grotendeels bewolkt  
Grotendeels bewolkt  
   Wind: Westen 7.4 km/h
Wind: Westen 7.4 km/h
Temperatuur: 7°C
Voelt als: 6°C
Dauwpunt: 6°C
Vochtigheid: 93%
Barometer: 1017 hPa
Bewolking: Mostly Cloudy
Zicht: meer dan 10 km
Bewolking: Licht bewolkt 457.2 m,
Gedeeltelijk bewolkt 1036.3 m,
Grotendeels bewolkt 1188.7 m
EHGR 181855Z AUTO 27004KT 230V330 9999 FEW015CB SCT034 BKN039 07/06 Q1017 RERA BLU
EHBK - Maastricht
Gewijzigd: 18-11-2017 19:55
Bewolking  
Bewolking  
   Wind: ZW 24.1 km/h
Wind: ZW 24.1 km/h
Temperatuur: 7°C
Voelt als: 3°C
Dauwpunt: 5°C
Vochtigheid: 87%
Barometer: 1017 hPa
Bewolking: Overcast
Zicht: meer dan 10 km
Bewolking: Grotendeels bewolkt 304.8 m,
Bewolking 396.2 m
EHBK 181855Z AUTO 23013KT 200V270 9999 BKN010 OVC013 07/05 Q1017 NOSIG
EHVK - Volkel
Gewijzigd: 18-11-2017 20:03
Grotendeels bewolkt  
Grotendeels bewolkt  
   Wind: Westen 5.6 km/h
Wind: Westen 5.6 km/h
Temperatuur: 6°C
Voelt als: 5°C
Dauwpunt: 5°C
Vochtigheid: 93%
Barometer: 1016 hPa
Bewolking: Mostly Cloudy
Zicht: meer dan 10 km
Bewolking: Licht bewolkt 731.5 m,
Grotendeels bewolkt 914.4 m,
Grotendeels bewolkt 1066.8 m
EHVK 181903Z AUTO 27003KT 9999 FEW024 BKN030 BKN035 06/05 Q1016 BLU
EHFS - Vlissingen
Gewijzigd: 18-11-2017 19:55
Gedeeltelijk bewolkt  
Gedeeltelijk bewolkt  
   Wind: Westen 22.2 km/h
Wind: Westen 22.2 km/h
Temperatuur: 10°C
Voelt als: 7°C
Dauwpunt: 6°C
Vochtigheid: 76%
Barometer: 1017 hPa
Bewolking: Partly Cloudy
Zicht: meer dan 10 km
Bewolking: Gedeeltelijk bewolkt m
EHFS 181855Z AUTO 28012KT 250V310 9999 NSC 10/06 Q1017

Script ontwikkeld door  Saratoga-weather.org Aangepast voor de template door  Weerstation Leuven

Apparatuur in gebruik:

Weerstation
Davis VP2

Weerprogramma
WeatherLink

Weercomputer
Sponsor

Webleverancier
My provider

Davis VP2

WeatherLink

Sponsor

My provider